sensor_id;sensor_type;location;lat;lon;timestamp;P1;durP1;ratioP1;P2;durP2;ratioP2
57339;SDS011;43174;50.930;18.170;2022-11-03T13:16:58;5.70;;;5.20;;
57339;SDS011;43174;50.930;18.170;2022-11-03T13:26:40;4.90;;;4.10;;
57339;SDS011;43174;50.930;18.170;2022-11-03T13:36:22;4.60;;;3.70;;
57339;SDS011;43174;50.930;18.170;2022-11-03T13:46:05;5.90;;;3.80;;
57339;SDS011;43174;50.930;18.170;2022-11-03T13:55:49;0.80;;;0.80;;
57339;SDS011;43174;50.930;18.170;2022-11-03T14:05:31;1.30;;;0.90;;
57339;SDS011;43174;50.930;18.170;2022-11-03T14:15:14;4.50;;;3.20;;
57339;SDS011;43174;50.930;18.170;2022-11-03T14:24:56;5.70;;;5.40;;
57339;SDS011;43174;50.930;18.170;2022-11-03T14:34:41;9.90;;;8.90;;
57339;SDS011;43174;50.930;18.170;2022-11-03T14:44:28;6.30;;;5.80;;
57339;SDS011;43174;50.930;18.170;2022-11-03T14:54:10;18.70;;;16.90;;
57339;SDS011;43174;50.930;18.170;2022-11-03T15:03:52;26.70;;;16.90;;
57339;SDS011;43174;50.930;18.170;2022-11-03T15:13:35;41.90;;;20.20;;
57339;SDS011;43174;50.930;18.170;2022-11-03T15:23:16;357.70;;;214.80;;
57339;SDS011;43174;50.930;18.170;2022-11-03T15:33:01;1290.70;;;663.20;;
57339;SDS011;43174;50.930;18.170;2022-11-03T15:42:43;853.70;;;465.90;;
57339;SDS011;43174;50.930;18.170;2022-11-03T15:52:24;776.40;;;528.10;;
57339;SDS011;43174;50.930;18.170;2022-11-03T16:02:06;193.50;;;125.80;;
57339;SDS011;43174;50.930;18.170;2022-11-03T16:11:48;45.50;;;32.00;;
57339;SDS011;43174;50.930;18.170;2022-11-03T16:21:30;18.40;;;16.70;;
57339;SDS011;43174;50.930;18.170;2022-11-03T16:31:14;53.80;;;36.50;;
57339;SDS011;43174;50.930;18.170;2022-11-03T16:40:55;51.90;;;39.30;;
57339;SDS011;43174;50.930;18.170;2022-11-03T16:50:36;32.50;;;25.20;;
57339;SDS011;43174;50.930;18.170;2022-11-03T17:00:18;56.50;;;26.50;;
57339;SDS011;43174;50.930;18.170;2022-11-03T17:10:01;43.80;;;29.50;;
57339;SDS011;43174;50.930;18.170;2022-11-03T17:19:43;38.10;;;26.80;;
57339;SDS011;43174;50.930;18.170;2022-11-03T17:29:35;32.90;;;25.60;;
57339;SDS011;43174;50.930;18.170;2022-11-03T17:39:19;60.20;;;33.60;;
57339;SDS011;43174;50.930;18.170;2022-11-03T17:49:02;71.10;;;47.00;;
57339;SDS011;43174;50.930;18.170;2022-11-03T17:58:44;104.20;;;92.90;;
57339;SDS011;43174;50.930;18.170;2022-11-03T18:08:27;55.40;;;28.50;;
57339;SDS011;43174;50.930;18.170;2022-11-03T18:18:10;57.60;;;41.50;;
57339;SDS011;43174;50.930;18.170;2022-11-03T18:27:53;35.20;;;24.20;;
57339;SDS011;43174;50.930;18.170;2022-11-03T18:37:36;40.90;;;17.50;;
57339;SDS011;43174;50.930;18.170;2022-11-03T18:47:20;16.00;;;12.70;;
57339;SDS011;43174;50.930;18.170;2022-11-03T18:57:03;8.50;;;7.70;;
57339;SDS011;43174;50.930;18.170;2022-11-03T19:06:47;13.60;;;12.40;;
57339;SDS011;43174;50.930;18.170;2022-11-03T19:23:04;11.60;;;10.70;;
57339;SDS011;43174;50.930;18.170;2022-11-03T19:32:47;23.90;;;15.20;;
57339;SDS011;43174;50.930;18.170;2022-11-03T19:42:33;26.30;;;15.20;;
57339;SDS011;43174;50.930;18.170;2022-11-03T19:52:17;28.40;;;15.60;;
57339;SDS011;43174;50.930;18.170;2022-11-03T20:02:01;14.40;;;12.30;;
57339;SDS011;43174;50.930;18.170;2022-11-03T20:11:43;14.20;;;13.00;;
57339;SDS011;43174;50.930;18.170;2022-11-03T20:21:27;10.70;;;10.10;;
57339;SDS011;43174;50.930;18.170;2022-11-03T20:31:10;12.50;;;11.60;;
57339;SDS011;43174;50.930;18.170;2022-11-03T20:40:55;48.90;;;14.00;;
57339;SDS011;43174;50.930;18.170;2022-11-03T20:50:41;14.90;;;12.60;;
57339;SDS011;43174;50.930;18.170;2022-11-03T21:00:25;35.90;;;13.20;;
57339;SDS011;43174;50.930;18.170;2022-11-03T21:10:09;16.10;;;14.30;;
57339;SDS011;43174;50.930;18.170;2022-11-03T21:20:30;16.30;;;12.30;;
57339;SDS011;43174;50.930;18.170;2022-11-03T21:30:14;22.20;;;11.60;;
57339;SDS011;43174;50.930;18.170;2022-11-03T21:39:57;17.90;;;15.60;;
57339;SDS011;43174;50.930;18.170;2022-11-03T21:49:58;17.70;;;15.90;;
57339;SDS011;43174;50.930;18.170;2022-11-03T21:59:49;24.60;;;15.10;;
57339;SDS011;43174;50.930;18.170;2022-11-03T22:16:48;8.80;;;7.90;;
57339;SDS011;43174;50.930;18.170;2022-11-03T22:27:26;22.50;;;16.80;;
57339;SDS011;43174;50.930;18.170;2022-11-03T22:45:43;20.60;;;17.90;;
57339;SDS011;43174;50.930;18.170;2022-11-03T22:55:51;18.60;;;16.80;;
57339;SDS011;43174;50.930;18.170;2022-11-03T23:05:32;18.40;;;16.50;;
57339;SDS011;43174;50.930;18.170;2022-11-03T23:15:17;18.10;;;16.20;;
57339;SDS011;43174;50.930;18.170;2022-11-03T23:26:10;27.50;;;15.60;;
57339;SDS011;43174;50.930;18.170;2022-11-03T23:35:51;17.30;;;15.70;;
57339;SDS011;43174;50.930;18.170;2022-11-03T23:45:34;19.00;;;17.30;;
57339;SDS011;43174;50.930;18.170;2022-11-03T23:55:53;32.60;;;15.40;;
